createdAt,value
2022-11-14T00:01:07.168Z,101370.00
2022-11-14T00:03:52.270Z,101377.00
2022-11-14T00:06:37.364Z,101371.00
2022-11-14T00:09:29.050Z,101367.00
2022-11-14T00:12:14.209Z,101366.00
2022-11-14T00:14:59.264Z,101357.00
2022-11-14T00:17:44.155Z,101357.00
2022-11-14T00:20:29.428Z,101365.00
2022-11-14T00:23:14.651Z,101357.00
2022-11-14T00:25:59.884Z,101344.00
2022-11-14T00:28:45.164Z,101340.00
2022-11-14T00:31:30.322Z,101343.00
2022-11-14T00:34:15.811Z,101342.00
2022-11-14T00:37:01.428Z,101336.00
2022-11-14T00:39:46.804Z,101338.00
2022-11-14T00:42:31.946Z,101333.00
2022-11-14T00:45:17.166Z,101334.00
2022-11-14T00:48:02.274Z,101330.00
2022-11-14T00:50:47.182Z,101322.00
2022-11-14T00:53:32.333Z,101318.00
2022-11-14T00:56:17.586Z,101316.00
2022-11-14T00:59:02.956Z,101312.00
2022-11-14T01:01:48.182Z,101313.00
2022-11-14T01:04:33.443Z,101305.00
2022-11-14T01:07:18.771Z,101302.00
2022-11-14T01:10:05.048Z,101302.00
2022-11-14T01:12:50.390Z,101306.00
2022-11-14T01:15:47.385Z,101306.00
2022-11-14T01:18:32.960Z,101301.00
2022-11-14T01:21:17.817Z,101283.00
2022-11-14T01:24:03.254Z,101284.00
2022-11-14T01:26:48.606Z,101290.00
2022-11-14T01:29:33.763Z,101289.00
2022-11-14T01:32:19.020Z,101297.00
2022-11-14T01:35:04.077Z,101289.00
2022-11-14T01:37:49.409Z,101288.00
2022-11-14T01:40:34.765Z,101288.00
2022-11-14T01:43:22.851Z,101282.00
2022-11-14T01:46:34.090Z,101281.00
2022-11-14T01:49:25.639Z,101272.00
2022-11-14T01:52:24.586Z,101263.00
2022-11-14T01:55:10.234Z,101266.00
2022-11-14T01:57:55.636Z,101261.00
2022-11-14T02:00:41.380Z,101263.00
2022-11-14T02:03:26.358Z,101243.00
2022-11-14T02:06:14.765Z,101246.00
2022-11-14T02:09:04.987Z,101246.00
2022-11-14T02:11:50.670Z,101238.00
2022-11-14T02:14:37.289Z,101240.00
2022-11-14T02:17:29.484Z,101236.00
2022-11-14T02:20:29.618Z,101234.00
2022-11-14T02:23:14.938Z,101236.00
2022-11-14T02:26:00.083Z,101225.00
2022-11-14T02:28:45.635Z,101217.00
2022-11-14T02:31:30.407Z,101219.00
2022-11-14T02:34:19.768Z,101220.00
2022-11-14T02:37:05.542Z,101211.00
2022-11-14T02:39:50.730Z,101200.00
2022-11-14T02:42:36.080Z,101197.00
2022-11-14T02:45:21.373Z,101191.00
2022-11-14T02:48:06.811Z,101200.00
2022-11-14T02:50:51.971Z,101199.00
2022-11-14T02:53:37.218Z,101191.00
2022-11-14T02:56:22.454Z,101189.00
2022-11-14T02:59:07.657Z,101183.00
2022-11-14T03:01:52.955Z,101188.00
2022-11-14T03:04:38.030Z,101188.00
2022-11-14T03:07:23.278Z,101183.00
2022-11-14T03:10:09.562Z,101172.00
2022-11-14T03:12:55.632Z,101167.00
2022-11-14T03:15:40.729Z,101171.00
2022-11-14T03:18:26.017Z,101166.00
2022-11-14T03:21:18.341Z,101164.00
2022-11-14T03:24:03.409Z,101168.00
2022-11-14T03:26:48.567Z,101167.00
2022-11-14T03:29:33.786Z,101164.00
2022-11-14T03:32:19.103Z,101171.00
2022-11-14T03:35:04.512Z,101167.00
2022-11-14T03:37:51.739Z,101163.00
2022-11-14T03:40:41.003Z,101166.00
2022-11-14T03:43:26.471Z,101160.00
2022-11-14T03:46:11.451Z,101148.00
2022-11-14T03:48:56.453Z,101143.00
2022-11-14T03:51:41.669Z,101148.00
2022-11-14T03:54:26.914Z,101146.00
2022-11-14T03:57:12.068Z,101141.00
2022-11-14T03:59:57.408Z,101128.00
2022-11-14T04:02:42.275Z,101132.00
2022-11-14T04:05:27.494Z,101140.00
2022-11-14T04:08:12.587Z,101132.00
2022-11-14T04:10:57.853Z,101130.00
2022-11-14T04:13:43.347Z,101123.00
2022-11-14T04:16:28.616Z,101123.00
2022-11-14T04:19:13.811Z,101120.00
2022-11-14T04:21:59.028Z,101122.00
2022-11-14T04:24:44.205Z,101124.00
2022-11-14T04:27:29.096Z,101115.00
2022-11-14T04:30:14.245Z,101114.00
2022-11-14T04:32:59.344Z,101112.00
2022-11-14T04:35:44.648Z,101116.00
2022-11-14T04:38:30.245Z,101103.00
2022-11-14T04:41:15.786Z,101112.00
2022-11-14T04:44:01.403Z,101101.00
2022-11-14T04:46:46.468Z,101103.00
2022-11-14T04:49:31.883Z,101086.00
2022-11-14T04:52:17.269Z,101093.00
2022-11-14T04:55:02.487Z,101102.00
2022-11-14T04:57:47.784Z,101086.00
2022-11-14T05:00:33.030Z,101094.00
2022-11-14T05:03:18.380Z,101090.00
2022-11-14T05:06:03.824Z,101093.00
2022-11-14T05:08:49.128Z,101099.00
2022-11-14T05:11:34.579Z,101101.00
2022-11-14T05:14:19.871Z,101099.00
2022-11-14T05:17:05.252Z,101088.00
2022-11-14T05:19:50.663Z,101096.00
2022-11-14T05:22:35.769Z,101088.00
2022-11-14T05:25:21.867Z,101086.00
2022-11-14T05:28:06.854Z,101088.00
2022-11-14T05:30:52.056Z,101099.00
2022-11-14T05:33:37.045Z,101086.00
2022-11-14T05:36:22.191Z,101085.00
2022-11-14T05:39:07.447Z,101092.00
2022-11-14T05:41:52.792Z,101102.00
2022-11-14T05:44:38.073Z,101101.00
2022-11-14T05:47:23.449Z,101089.00
2022-11-14T05:50:09.694Z,101092.00
2022-11-14T05:52:56.526Z,101088.00
2022-11-14T05:55:41.911Z,101085.00
2022-11-14T05:58:27.634Z,101075.00
2022-11-14T06:01:18.581Z,101075.00
2022-11-14T06:04:06.305Z,101072.00
2022-11-14T06:06:51.839Z,101081.00
2022-11-14T06:09:37.171Z,101069.00
2022-11-14T06:12:22.489Z,101076.00
2022-11-14T06:15:08.083Z,101076.00
2022-11-14T06:17:53.921Z,101072.00
2022-11-14T06:20:39.128Z,101067.00
2022-11-14T06:23:24.985Z,101071.00
2022-11-14T06:26:30.308Z,101073.00
2022-11-14T06:29:15.515Z,101081.00
2022-11-14T06:32:00.922Z,101075.00
2022-11-14T06:34:45.997Z,101062.00
2022-11-14T06:37:33.793Z,101063.00
2022-11-14T06:40:19.992Z,101065.00
2022-11-14T06:43:05.393Z,101061.00
2022-11-14T06:45:54.028Z,101077.00
2022-11-14T06:48:39.478Z,101075.00
2022-11-14T06:51:25.170Z,101072.00
2022-11-14T06:54:13.797Z,101082.00
2022-11-14T06:56:59.142Z,101078.00
2022-11-14T06:59:44.510Z,101079.00
2022-11-14T07:02:29.536Z,101079.00
2022-11-14T07:05:14.873Z,101082.00
2022-11-14T07:07:59.969Z,101075.00
2022-11-14T07:10:45.131Z,101066.00
2022-11-14T07:13:31.305Z,101061.00
2022-11-14T07:16:16.410Z,101073.00
2022-11-14T07:19:03.127Z,101069.00
2022-11-14T07:21:48.538Z,101078.00
2022-11-14T07:24:33.736Z,101069.00
2022-11-14T07:27:19.033Z,101075.00
2022-11-14T07:30:04.839Z,101072.00
2022-11-14T07:32:57.421Z,101074.00
2022-11-14T07:35:42.587Z,101071.00
2022-11-14T07:38:28.156Z,101076.00
2022-11-14T07:41:15.461Z,101075.00
2022-11-14T07:44:00.604Z,101076.00
2022-11-14T07:46:46.023Z,101075.00
2022-11-14T07:49:31.195Z,101074.00
2022-11-14T07:52:16.477Z,101064.00
2022-11-14T07:55:01.403Z,101062.00
2022-11-14T07:57:49.423Z,101062.00
2022-11-14T08:00:34.882Z,101053.00
2022-11-14T08:03:19.949Z,101069.00
2022-11-14T08:06:23.534Z,101059.00
2022-11-14T08:09:08.851Z,101064.00
2022-11-14T08:11:53.727Z,101064.00
2022-11-14T08:14:38.888Z,101069.00
2022-11-14T08:17:24.365Z,101060.00
2022-11-14T08:20:10.321Z,101068.00
2022-11-14T08:23:01.789Z,101061.00
2022-11-14T08:25:47.044Z,101048.00
2022-11-14T08:28:35.236Z,101043.00
2022-11-14T08:31:21.144Z,101054.00
2022-11-14T08:34:06.324Z,101045.00
2022-11-14T08:36:51.573Z,101047.00
2022-11-14T08:39:37.448Z,101038.00
2022-11-14T08:42:22.533Z,101038.00
2022-11-14T08:45:08.059Z,101042.00
2022-11-14T08:47:53.573Z,101036.00
2022-11-14T08:50:38.808Z,101028.00
2022-11-14T08:53:24.675Z,101039.00
2022-11-14T08:56:11.103Z,101038.00
2022-11-14T08:58:56.084Z,101038.00
2022-11-14T09:01:42.201Z,101042.00
2022-11-14T09:04:27.248Z,101025.00
2022-11-14T09:07:12.209Z,101034.00
2022-11-14T09:09:57.279Z,101026.00
2022-11-14T09:12:42.320Z,101028.00
2022-11-14T09:15:28.496Z,101024.00
2022-11-14T09:18:13.844Z,101023.00
2022-11-14T09:21:03.758Z,101006.00
2022-11-14T09:23:48.588Z,101002.00
2022-11-14T09:26:33.859Z,101002.00
2022-11-14T09:29:19.018Z,101000.00
2022-11-14T09:32:04.000Z,100999.00
2022-11-14T09:34:49.317Z,100997.00
2022-11-14T09:37:34.551Z,100998.00
2022-11-14T09:40:20.015Z,100992.00
2022-11-14T09:43:15.332Z,100999.00
2022-11-14T09:46:01.589Z,101003.00
2022-11-14T09:48:46.653Z,100994.00
2022-11-14T09:51:39.892Z,100984.00
2022-11-14T09:54:32.494Z,100996.00
2022-11-14T09:57:19.783Z,100995.00
2022-11-14T10:00:18.291Z,100989.00
2022-11-14T10:03:24.660Z,100990.00
2022-11-14T10:06:48.441Z,100976.00
2022-11-14T10:09:49.079Z,100984.00
2022-11-14T10:12:36.869Z,100976.00
2022-11-14T10:15:34.153Z,100959.00
2022-11-14T10:18:43.502Z,100938.00
2022-11-14T10:21:34.735Z,100951.00
2022-11-14T10:24:51.724Z,100951.00
2022-11-14T10:28:02.338Z,100968.00
2022-11-14T10:31:03.389Z,100957.00
2022-11-14T10:33:57.646Z,100965.00
2022-11-14T10:36:57.799Z,100957.00
2022-11-14T10:39:48.197Z,100946.00
2022-11-14T10:42:37.093Z,100946.00
2022-11-14T10:45:26.261Z,100935.00
2022-11-14T10:48:41.745Z,100948.00
2022-11-14T10:51:38.918Z,100927.00
2022-11-14T10:54:32.865Z,100909.00
2022-11-14T10:57:20.524Z,100926.00
2022-11-14T11:00:19.713Z,100935.00
2022-11-14T11:03:08.093Z,100926.00
2022-11-14T11:05:59.970Z,100925.00
2022-11-14T11:09:03.805Z,100910.00
2022-11-14T11:11:58.370Z,100904.00
2022-11-14T11:14:44.959Z,100903.00
2022-11-14T11:17:36.124Z,100903.00
2022-11-14T11:20:39.492Z,100887.00
2022-11-14T11:23:26.935Z,100893.00
2022-11-14T11:26:31.997Z,100907.00
2022-11-14T11:29:18.298Z,100886.00
2022-11-14T11:32:07.621Z,100882.00
2022-11-14T11:34:52.453Z,100883.00
2022-11-14T11:37:43.344Z,100884.00
2022-11-14T11:40:29.739Z,100875.00
2022-11-14T11:43:42.812Z,100872.00
2022-11-14T11:46:43.447Z,100876.00
2022-11-14T11:49:47.394Z,100863.00
2022-11-14T11:53:12.895Z,100852.00
2022-11-14T11:56:16.325Z,100861.00
2022-11-14T11:59:25.670Z,100857.00
2022-11-14T12:02:30.996Z,100849.00
2022-11-14T12:05:39.451Z,100834.00
2022-11-14T12:09:02.479Z,100852.00
2022-11-14T12:11:52.762Z,100850.00
2022-11-14T12:14:59.456Z,100847.00
2022-11-14T12:17:53.697Z,100858.00
2022-11-14T12:21:04.804Z,100851.00
2022-11-14T12:24:08.712Z,100847.00
2022-11-14T12:27:22.085Z,100850.00
2022-11-14T12:30:11.956Z,100834.00
2022-11-14T12:33:18.802Z,100832.00
2022-11-14T12:36:07.979Z,100832.00
2022-11-14T12:38:54.242Z,100835.00
2022-11-14T12:41:40.363Z,100834.00
2022-11-14T12:44:28.516Z,100829.00
2022-11-14T12:47:19.206Z,100839.00
2022-11-14T12:50:06.357Z,100829.00
2022-11-14T12:52:53.933Z,100823.00
2022-11-14T12:55:53.864Z,100829.00
2022-11-14T12:59:20.650Z,100825.00
2022-11-14T13:02:29.266Z,100830.00
2022-11-14T13:05:14.634Z,100829.00
2022-11-14T13:08:10.195Z,100820.00
2022-11-14T13:10:55.412Z,100826.00
2022-11-14T13:14:20.554Z,100819.00
2022-11-14T13:17:36.508Z,100813.00
2022-11-14T13:20:40.405Z,100818.00
2022-11-14T13:23:25.761Z,100813.00
2022-11-14T13:26:10.891Z,100815.00
2022-11-14T13:28:57.870Z,100812.00
2022-11-14T13:31:47.239Z,100816.00
2022-11-14T13:34:52.554Z,100808.00
2022-11-14T13:37:54.774Z,100815.00
2022-11-14T13:40:51.511Z,100809.00
2022-11-14T13:44:15.483Z,100803.00
2022-11-14T13:47:11.714Z,100798.00
2022-11-14T13:50:01.981Z,100798.00
2022-11-14T13:52:48.845Z,100800.00
2022-11-14T13:55:59.987Z,100788.00
2022-11-14T13:58:57.082Z,100792.00
2022-11-14T14:01:52.119Z,100789.00
2022-11-14T14:04:56.008Z,100786.00
2022-11-14T14:08:10.539Z,100789.00
2022-11-14T14:11:28.436Z,100789.00
2022-11-14T14:14:37.879Z,100789.00
2022-11-14T14:17:31.719Z,100776.00
2022-11-14T14:20:38.564Z,100767.00
2022-11-14T14:23:32.862Z,100766.00
2022-11-14T14:26:18.284Z,100775.00
2022-11-14T14:29:21.890Z,100767.00
2022-11-14T14:32:15.593Z,100770.00
2022-11-14T14:35:00.676Z,100763.00
2022-11-14T14:37:51.321Z,100763.00
2022-11-14T14:40:38.338Z,100759.00
2022-11-14T14:43:32.616Z,100754.00
2022-11-14T14:46:27.177Z,100755.00
2022-11-14T14:49:19.433Z,100762.00
2022-11-14T14:52:36.038Z,100759.00
2022-11-14T14:55:23.161Z,100756.00
2022-11-14T14:58:28.065Z,100747.00
2022-11-14T15:01:18.431Z,100743.00
2022-11-14T15:04:08.496Z,100749.00
2022-11-14T15:06:57.186Z,100737.00
2022-11-14T15:09:59.961Z,100739.00
2022-11-14T15:12:45.291Z,100731.00
2022-11-14T15:15:31.030Z,100737.00
2022-11-14T15:18:31.110Z,100748.00
2022-11-14T15:21:27.235Z,100750.00
2022-11-14T15:24:20.710Z,100747.00
2022-11-14T15:27:16.892Z,100741.00
2022-11-14T15:30:05.877Z,100749.00
2022-11-14T15:32:53.497Z,100739.00
2022-11-14T15:35:39.793Z,100743.00
2022-11-14T15:41:33.712Z,100728.00
2022-11-14T15:44:29.831Z,100727.00
2022-11-14T15:47:39.119Z,100728.00
2022-11-14T15:50:42.300Z,100725.00
2022-11-14T15:53:28.663Z,100722.00
2022-11-14T15:56:13.978Z,100724.00
2022-11-14T15:58:59.172Z,100715.00
2022-11-14T16:01:46.609Z,100714.00
2022-11-14T16:04:36.028Z,100712.00
2022-11-14T16:07:21.802Z,100714.00
2022-11-14T16:10:20.897Z,100704.00
2022-11-14T16:13:06.790Z,100711.00
2022-11-14T16:15:51.911Z,100707.00
2022-11-14T16:18:37.132Z,100705.00
2022-11-14T16:21:22.469Z,100709.00
2022-11-14T16:24:13.678Z,100717.00
2022-11-14T16:26:58.995Z,100713.00
2022-11-14T16:29:44.318Z,100720.00
2022-11-14T16:32:29.729Z,100723.00
2022-11-14T16:35:17.087Z,100718.00
2022-11-14T16:38:02.451Z,100720.00
2022-11-14T16:40:47.654Z,100732.00
2022-11-14T16:43:33.018Z,100729.00
2022-11-14T16:46:18.187Z,100726.00
2022-11-14T16:49:03.220Z,100715.00
2022-11-14T16:51:52.372Z,100721.00
2022-11-14T16:54:37.331Z,100726.00
2022-11-14T16:57:23.081Z,100722.00
2022-11-14T17:00:10.933Z,100716.00
2022-11-14T17:02:56.542Z,100706.00
2022-11-14T17:05:46.328Z,100715.00
2022-11-14T17:08:31.278Z,100698.00
2022-11-14T17:11:16.401Z,100711.00
2022-11-14T17:14:01.702Z,100706.00
2022-11-14T17:16:46.811Z,100706.00
2022-11-14T17:19:31.894Z,100718.00
2022-11-14T17:22:18.084Z,100710.00
2022-11-14T17:25:03.078Z,100723.00
2022-11-14T17:27:51.304Z,100720.00
2022-11-14T17:30:45.473Z,100706.00
2022-11-14T17:33:30.891Z,100717.00
2022-11-14T17:36:17.798Z,100707.00
2022-11-14T17:39:02.924Z,100716.00
2022-11-14T17:41:48.470Z,100718.00
2022-11-14T17:44:33.630Z,100729.00
2022-11-14T17:47:19.614Z,100717.00
2022-11-14T17:50:05.022Z,100707.00
2022-11-14T17:52:50.200Z,100717.00
2022-11-14T17:55:35.388Z,100704.00
2022-11-14T17:58:20.484Z,100699.00
2022-11-14T18:01:13.993Z,100698.00
2022-11-14T18:04:04.483Z,100695.00
2022-11-14T18:06:51.416Z,100694.00
2022-11-14T18:09:36.682Z,100688.00
2022-11-14T18:12:21.882Z,100689.00
2022-11-14T18:15:08.210Z,100687.00
2022-11-14T18:17:53.107Z,100693.00
2022-11-14T18:20:38.278Z,100685.00
2022-11-14T18:23:23.516Z,100690.00
2022-11-14T18:26:13.352Z,100691.00
2022-11-14T18:29:01.073Z,100684.00
2022-11-14T18:31:46.476Z,100680.00
2022-11-14T18:34:31.627Z,100673.00
2022-11-14T18:37:16.664Z,100669.00
2022-11-14T18:40:01.842Z,100666.00
2022-11-14T18:42:47.316Z,100648.00
2022-11-14T18:45:34.572Z,100653.00
2022-11-14T18:48:19.694Z,100655.00
2022-11-14T18:51:07.589Z,100655.00
2022-11-14T18:53:55.199Z,100653.00
2022-11-14T18:56:40.407Z,100652.00
2022-11-14T18:59:26.531Z,100644.00
2022-11-14T19:02:11.762Z,100647.00
2022-11-14T19:04:57.022Z,100630.00
2022-11-14T19:07:42.234Z,100644.00
2022-11-14T19:10:27.232Z,100644.00
2022-11-14T19:13:12.477Z,100643.00
2022-11-14T19:16:04.974Z,100650.00
2022-11-14T19:18:49.934Z,100648.00
2022-11-14T19:21:35.541Z,100648.00
2022-11-14T19:24:20.624Z,100648.00
2022-11-14T19:27:05.901Z,100639.00
2022-11-14T19:29:51.127Z,100646.00
2022-11-14T19:32:36.065Z,100637.00
2022-11-14T19:35:21.413Z,100634.00
2022-11-14T19:38:06.555Z,100623.00
2022-11-14T19:40:52.174Z,100640.00
2022-11-14T19:43:37.954Z,100630.00
2022-11-14T19:46:28.975Z,100623.00
2022-11-14T19:49:13.909Z,100623.00
2022-11-14T19:51:59.148Z,100623.00
2022-11-14T19:54:44.353Z,100621.00
2022-11-14T19:57:30.890Z,100619.00
2022-11-14T20:00:16.443Z,100615.00
2022-11-14T20:03:01.637Z,100619.00
2022-11-14T20:05:46.818Z,100612.00
2022-11-14T20:08:32.092Z,100621.00
2022-11-14T20:11:17.721Z,100623.00
2022-11-14T20:14:03.153Z,100618.00
2022-11-14T20:16:48.380Z,100615.00
2022-11-14T20:19:33.767Z,100609.00
2022-11-14T20:22:19.042Z,100601.00
2022-11-14T20:25:04.925Z,100603.00
2022-11-14T20:27:50.133Z,100600.00
2022-11-14T20:30:41.634Z,100596.00
2022-11-14T20:33:26.958Z,100613.00
2022-11-14T20:36:17.447Z,100617.00
2022-11-14T20:39:02.670Z,100604.00
2022-11-14T20:41:47.928Z,100614.00
2022-11-14T20:44:33.343Z,100610.00
2022-11-14T20:47:18.722Z,100595.00
2022-11-14T20:50:04.422Z,100591.00
2022-11-14T20:52:49.498Z,100581.00
2022-11-14T20:55:34.807Z,100582.00
2022-11-14T20:58:20.428Z,100586.00
2022-11-14T21:01:05.501Z,100601.00
2022-11-14T21:03:51.121Z,100589.00
2022-11-14T21:06:36.113Z,100588.00
2022-11-14T21:09:21.349Z,100582.00
2022-11-14T21:12:06.365Z,100587.00
2022-11-14T21:14:51.583Z,100592.00
2022-11-14T21:17:36.604Z,100587.00
2022-11-14T21:20:21.815Z,100581.00
2022-11-14T21:23:06.756Z,100580.00
2022-11-14T21:25:51.523Z,100587.00
2022-11-14T21:28:39.468Z,100580.00
2022-11-14T21:31:27.478Z,100575.00
2022-11-14T21:34:14.300Z,100573.00
2022-11-14T21:36:59.309Z,100580.00
2022-11-14T21:39:44.493Z,100564.00
2022-11-14T21:42:29.444Z,100570.00
2022-11-14T21:45:15.659Z,100561.00
2022-11-14T21:48:00.866Z,100565.00
2022-11-14T21:50:45.968Z,100558.00
2022-11-14T21:53:31.712Z,100552.00
2022-11-14T21:56:23.014Z,100549.00
2022-11-14T21:59:21.193Z,100562.00
2022-11-14T22:02:25.586Z,100554.00
2022-11-14T22:05:10.748Z,100544.00
2022-11-14T22:07:56.076Z,100546.00
2022-11-14T22:10:41.353Z,100546.00
2022-11-14T22:13:26.320Z,100548.00
2022-11-14T22:16:17.572Z,100549.00
2022-11-14T22:19:05.472Z,100540.00
2022-11-14T22:21:50.992Z,100553.00
2022-11-14T22:24:35.990Z,100550.00
2022-11-14T22:27:21.306Z,100550.00
2022-11-14T22:30:07.143Z,100544.00
2022-11-14T22:32:52.319Z,100536.00
2022-11-14T22:35:37.545Z,100538.00
2022-11-14T22:38:22.655Z,100537.00
2022-11-14T22:41:11.734Z,100538.00
2022-11-14T22:43:57.008Z,100535.00
2022-11-14T22:46:42.433Z,100536.00
2022-11-14T22:49:27.577Z,100532.00
2022-11-14T22:52:12.498Z,100532.00
2022-11-14T22:54:57.475Z,100534.00
2022-11-14T22:57:42.760Z,100533.00
2022-11-14T23:00:27.678Z,100538.00
2022-11-14T23:03:17.555Z,100537.00
2022-11-14T23:06:14.257Z,100537.00
2022-11-14T23:09:00.628Z,100537.00
2022-11-14T23:11:45.962Z,100525.00
2022-11-14T23:14:31.097Z,100534.00
2022-11-14T23:17:16.125Z,100528.00
2022-11-14T23:20:01.304Z,100523.00
2022-11-14T23:22:46.655Z,100525.00
2022-11-14T23:25:31.781Z,100514.00
2022-11-14T23:28:16.685Z,100523.00
2022-11-14T23:31:01.914Z,100521.00
2022-11-14T23:33:47.972Z,100516.00
2022-11-14T23:36:33.166Z,100511.00
2022-11-14T23:39:18.412Z,100500.00
2022-11-14T23:42:03.489Z,100503.00
2022-11-14T23:44:48.865Z,100498.00
2022-11-14T23:47:34.008Z,100514.00
2022-11-14T23:50:18.825Z,100493.00
2022-11-14T23:53:03.934Z,100498.00
2022-11-14T23:55:58.165Z,100495.00
2022-11-14T23:58:43.442Z,100493.00
